Agnew, MI

11:24 AM EST on February 20, 2017 (GMT -0500)
Hunters Woods | | Change Station
Active Advisory: Small Craft Advisory

Elev 620 ft 43.00 °N, 86.17 °W | Updated 6 seconds ago

Partly Cloudy
Partly Cloudy
51.3 °F
Feels Like 51.3 °F
N
3.7
Wind Variable Wind from North

Today
High -- | Low -- °F
--% Chance of Precip.
Yesterday
High -- | Low -- °F
Precip. -- in
Pressure 30.20 in
Visibility 10.0 miles
Clouds Few 18000 ft
Overcast 23000 ft
Dew Point 40 °F
Humidity 64%
Rainfall 0.00 in
Snow Depth Not available.
7:34 AM 6:23 PM
Waning Crescent, 33% visible
METAR KMKG 201555Z 11011KT 10SM FEW180 OVC230 10/01 A3018 RMK AO2 SLP226 T01000011
Pressure 30.20 in
Visibility 10.0 miles
Clouds Few 18000 ft
Overcast 23000 ft
Dew Point 40 °F
Humidity 64%
Rainfall 0.00 in
Snow Depth Not available.
7:34 AM 6:23 PM
Waning Crescent, 33% visible
METAR KMKG 201555Z 11011KT 10SM FEW180 OVC230 10/01 A3018 RMK AO2 SLP226 T01000011

Get Your Daily Forecast Email!

Thanks for signing up!

Be on the lookout for a verification email in your inbox.

You'll start receiving the daily forecast at 8 AM.

×

10-Day Weather Forecast

Almanac

Astronomy

Feb. 20, 2017 Rise Set
Actual Time
Civil Twilight
Nautical Twilight
Astronomical Twilight
Moon
Length of Visible Light
Length of Day
Tomorrow will be .
, % of the Moon is Illuminated

Today's Extremes

State Highs State Lows

Community

WunderPhotos

Upload Photos

1,962,540 photos uploaded!

WunderBlog® & News

Nearby

Air Quality

  Air Quality AQ Index Pollutant
Not available.

Snow Depth

Station Depth Elevation

Earthquake Activity

City Distance Mag. Time & Date
Minimum magnitude displayed is 2.5.

Coastal Water Temperatures

Place Temperature

Stations

Nearby Weather Stations

Station Location Temp. Windchill Dew Point Humidity Wind Precip. Elev Updated Type
                   

Watches & Warnings

Small Craft Advisory
Issued: 3:42 AM EST Feb. 20, 2017 – National Weather Service

... Small Craft Advisory in effect from 1 PM this afternoon to
11 am EST Tuesday...

The National Weather Service in Grand Rapids has issued a Small
Craft Advisory... which is in effect from 1 PM this afternoon to
11 am EST Tuesday.

* Winds... southeast increasing to 15 to 25 knots later this
afternoon, then shifting to southwest tonight and diminishing
late.

* Waves... building to 3 to 6 feet tonight, then subsiding on
Tuesday.

Precautionary/preparedness actions...

A Small Craft Advisory means that winds or waves are expected to
produce hazardous conditions to small craft. Inexperienced
mariners... especially those operating smaller vessels should
avoid navigating in these conditions.